Time;durP1;ratioP1;P1;durP2;ratioP2;P2;SDS_P1;SDS_P2;PMS_P1;PMS_P2;Temp;Humidity;BMP_temperature;BMP_pressure;BME280_temperature;BME280_humidity;BME280_pressure;Samples;Min_cycle;Max_cycle;Signal;HPM_P1;HPM_P2
2022/07/12 00:00:45;;;;;;;1.57;1.30;;;16.40;99.90;;;;;;5041556;28;20212;-80
2022/07/12 00:03:11;;;;;;;1.93;1.20;;;16.30;99.90;;;;;;5041866;28;20174;-80
2022/07/12 00:05:37;;;;;;;1.50;1.10;;;16.40;99.90;;;;;;5058159;28;20192;-80
2022/07/12 00:08:02;;;;;;;1.30;1.20;;;16.40;99.90;;;;;;5058129;28;20180;-80
2022/07/12 00:10:28;;;;;;;1.53;1.43;;;16.40;99.90;;;;;;5041857;28;20595;-79
2022/07/12 00:12:54;;;;;;;1.40;1.30;;;16.40;99.90;;;;;;5057570;28;20185;-79
2022/07/12 00:15:20;;;;;;;1.27;1.20;;;16.40;99.90;;;;;;5041330;28;20213;-79
2022/07/12 00:18:31;;;;;;;2.10;1.30;;;16.30;99.90;;;;;;5057651;28;20188;-79
2022/07/12 00:20:56;;;;;;;2.47;1.73;;;16.30;99.90;;;;;;5074489;28;20188;-79
2022/07/12 00:23:22;;;;;;;1.40;1.30;;;16.30;99.90;;;;;;5057745;28;20182;-79
2022/07/12 00:25:48;;;;;;;1.30;1.20;;;16.30;99.90;;;;;;5057768;28;20176;-79
2022/07/12 00:28:13;;;;;;;2.90;1.30;;;16.30;99.90;;;;;;5057584;28;20185;-79
2022/07/12 00:30:39;;;;;;;1.33;1.20;;;16.20;99.90;;;;;;5041475;28;20310;-79
2022/07/12 00:33:04;;;;;;;1.60;1.50;;;16.30;99.90;;;;;;5058684;28;20188;-80
2022/07/12 00:35:30;;;;;;;2.07;1.40;;;16.30;99.90;;;;;;5041465;28;20235;-80
2022/07/12 00:37:56;;;;;;;1.73;1.40;;;16.30;99.90;;;;;;5042207;28;20197;-79
2022/07/12 00:40:21;;;;;;;1.50;1.40;;;16.40;99.90;;;;;;5058603;28;20199;-79
2022/07/12 00:42:47;;;;;;;3.93;1.60;;;16.40;99.90;;;;;;5041377;28;20185;-80
2022/07/12 00:45:13;;;;;;;1.50;1.40;;;16.40;99.90;;;;;;5075268;28;20216;-80
2022/07/12 00:47:42;;;;;;;1.50;1.40;;;16.30;99.90;;;;;;5058816;28;20192;-80
2022/07/12 00:50:18;;;;;;;2.07;1.20;;;16.30;99.90;;;;;;5075089;28;20201;-80
2022/07/12 00:52:46;;;;;;;2.37;1.40;;;16.30;99.90;;;;;;5075468;28;20176;-80
2022/07/12 00:55:13;;;;;;;1.33;1.23;;;16.30;99.90;;;;;;5074983;28;20200;-80
2022/07/12 00:57:43;;;;;;;1.30;1.20;;;16.30;99.90;;;;;;5075947;28;20177;-80
2022/07/12 01:00:10;;;;;;;3.30;1.50;;;16.20;99.90;;;;;;5059453;28;20197;-80
2022/07/12 01:02:37;;;;;;;1.20;1.20;;;16.20;99.90;;;;;;5058788;28;20278;-80
2022/07/12 01:05:07;;;;;;;1.47;1.37;;;16.20;99.90;;;;;;5075183;28;20181;-80
2022/07/12 01:07:34;;;;;;;1.50;1.40;;;16.30;99.90;;;;;;5075527;28;20177;-80
2022/07/12 01:10:01;;;;;;;1.50;1.40;;;16.30;99.90;;;;;;5059161;28;20201;-80
2022/07/12 01:12:26;;;;;;;1.50;1.37;;;16.40;99.90;;;;;;5042125;28;20215;-79
2022/07/12 01:14:53;;;;;;;1.83;1.37;;;16.30;99.90;;;;;;5058708;28;20225;-79
2022/07/12 01:17:24;;;;;;;1.87;1.77;;;16.30;99.90;;;;;;5059130;28;20240;-79
2022/07/12 01:19:52;;;;;;;1.40;1.30;;;16.30;99.90;;;;;;5059262;28;20639;-79
2022/07/12 01:22:18;;;;;;;1.93;1.50;;;16.20;99.90;;;;;;5059211;28;20256;-79
2022/07/12 01:24:47;;;;;;;2.37;1.50;;;16.20;99.90;;;;;;5075767;28;20181;-79
2022/07/12 01:27:13;;;;;;;1.57;1.47;;;16.20;99.90;;;;;;5042731;28;20181;-79
2022/07/12 01:29:39;;;;;;;1.50;1.40;;;16.10;99.90;;;;;;5076180;28;20241;-80
2022/07/12 01:32:24;;;;;;;1.50;1.40;;;16.10;99.90;;;;;;5073135;28;20185;-80
2022/07/12 01:34:59;;;;;;;2.27;1.50;;;16.10;99.90;;;;;;5073426;28;20264;-80
2022/07/12 01:37:29;;;;;;;1.37;1.20;;;16.10;99.90;;;;;;5072876;28;20172;-80
2022/07/12 01:39:57;;;;;;;1.77;1.40;;;16.10;99.90;;;;;;5073158;28;20686;-80
2022/07/12 01:42:24;;;;;;;1.47;1.37;;;16.10;99.90;;;;;;5056541;28;20173;-80
2022/07/12 01:44:51;;;;;;;1.37;1.27;;;16.10;99.90;;;;;;5073144;28;20181;-80
2022/07/12 01:47:23;;;;;;;1.40;1.30;;;16.10;99.90;;;;;;5073361;28;20809;-80
2022/07/12 01:49:48;;;;;;;1.37;1.27;;;16.10;99.90;;;;;;5072961;28;20200;-80
2022/07/12 01:52:15;;;;;;;1.53;1.40;;;16.10;99.90;;;;;;5055615;28;20645;-80
2022/07/12 01:54:42;;;;;;;1.50;1.40;;;16.10;99.90;;;;;;5072890;28;20204;-80
2022/07/12 01:57:07;;;;;;;2.87;1.40;;;16.10;99.90;;;;;;5072836;28;20183;-80
2022/07/12 01:59:33;;;;;;;1.80;1.40;;;16.20;99.90;;;;;;5039529;28;20193;-80
2022/07/12 02:02:00;;;;;;;1.57;1.47;;;16.20;99.90;;;;;;5039247;28;20177;-79
2022/07/12 02:04:26;;;;;;;2.10;1.50;;;16.20;99.90;;;;;;5056398;28;20177;-80
2022/07/12 02:06:52;;;;;;;1.90;1.40;;;16.20;99.90;;;;;;5073073;28;20173;-80
2022/07/12 02:09:18;;;;;;;2.23;1.40;;;16.20;99.90;;;;;;5056321;28;20204;-80
2022/07/12 02:11:45;;;;;;;3.10;1.50;;;16.10;99.90;;;;;;5055944;28;20192;-80
2022/07/12 02:14:12;;;;;;;2.90;1.40;;;16.10;99.90;;;;;;5056989;28;20181;-80
2022/07/12 02:16:38;;;;;;;1.97;1.57;;;16.10;99.90;;;;;;5056530;28;20222;-80
2022/07/12 02:19:04;;;;;;;1.43;1.33;;;16.10;99.90;;;;;;5056221;28;20204;-79
2022/07/12 02:21:29;;;;;;;2.13;1.50;;;16.00;99.90;;;;;;5056212;28;20342;-79
2022/07/12 02:23:55;;;;;;;1.50;1.40;;;16.00;99.90;;;;;;5056018;28;20180;-79
2022/07/12 02:26:21;;;;;;;1.43;1.33;;;16.00;99.90;;;;;;5056628;28;20177;-79
2022/07/12 02:28:46;;;;;;;2.30;1.47;;;16.00;99.90;;;;;;5056055;28;20201;-79
2022/07/12 02:31:12;;;;;;;1.40;1.30;;;16.00;99.90;;;;;;5044766;28;20181;-79
2022/07/12 02:33:37;;;;;;;2.03;1.40;;;16.00;99.90;;;;;;5072223;28;20219;-79
2022/07/12 02:36:03;;;;;;;1.73;1.50;;;16.00;99.90;;;;;;5057352;28;20208;-79
2022/07/12 02:38:29;;;;;;;1.67;1.57;;;15.90;99.90;;;;;;5055467;28;20384;-79
2022/07/12 02:40:55;;;;;;;1.60;1.50;;;15.90;99.90;;;;;;5071917;28;20173;-80
2022/07/12 02:43:26;;;;;;;1.77;1.50;;;15.90;99.90;;;;;;5055211;28;20180;-80
2022/07/12 02:45:52;;;;;;;1.50;1.40;;;15.90;99.90;;;;;;5038973;28;20188;-80
2022/07/12 02:48:18;;;;;;;1.53;1.43;;;15.90;99.90;;;;;;5056072;28;20187;-79
2022/07/12 02:50:44;;;;;;;1.80;1.70;;;16.00;99.90;;;;;;5074219;28;20173;-80
2022/07/12 02:53:10;;;;;;;2.17;1.60;;;16.00;99.90;;;;;;5073500;28;20631;-80
2022/07/12 02:55:37;;;;;;;1.50;1.40;;;16.00;99.90;;;;;;5040331;28;20266;-80
2022/07/12 02:58:06;;;;;;;1.50;1.40;;;16.00;99.90;;;;;;5057012;28;20177;-80
2022/07/12 03:00:32;;;;;;;1.60;1.50;;;16.00;99.90;;;;;;5040827;28;20231;-80
2022/07/12 03:02:58;;;;;;;1.57;1.47;;;16.00;99.90;;;;;;5056160;28;20185;-80
2022/07/12 03:05:24;;;;;;;1.60;1.50;;;15.90;99.90;;;;;;5059742;28;20209;-80
2022/07/12 03:07:49;;;;;;;1.80;1.67;;;15.90;99.90;;;;;;5044029;28;20177;-80
2022/07/12 03:10:15;;;;;;;1.50;1.40;;;15.90;99.90;;;;;;5060604;28;20660;-80
2022/07/12 03:12:41;;;;;;;3.07;1.50;;;15.90;99.90;;;;;;5044017;28;20206;-79
2022/07/12 03:15:07;;;;;;;1.67;1.57;;;15.80;99.90;;;;;;5059938;28;20216;-79
2022/07/12 03:17:35;;;;;;;3.00;1.83;;;15.80;99.90;;;;;;5060595;28;20230;-80
2022/07/12 03:20:04;;;;;;;1.57;1.37;;;15.80;99.90;;;;;;5088512;22;20255;-78
2022/07/12 03:22:30;;;;;;;1.67;1.50;;;15.80;99.90;;;;;;5058341;28;20169;-79
2022/07/12 03:24:55;;;;;;;3.50;1.60;;;15.80;99.90;;;;;;5058130;28;20683;-79
2022/07/12 03:27:21;;;;;;;2.13;1.60;;;15.80;99.90;;;;;;5057960;28;20177;-79
2022/07/12 03:29:47;;;;;;;2.60;1.60;;;15.90;99.90;;;;;;5054696;28;20292;-78
2022/07/12 03:32:14;;;;;;;1.60;1.50;;;15.90;99.90;;;;;;5070846;28;20643;-78
2022/07/12 03:34:40;;;;;;;3.53;1.90;;;15.90;99.90;;;;;;5055190;28;20198;-78
2022/07/12 03:37:05;;;;;;;1.80;1.70;;;16.00;99.90;;;;;;5054980;28;20228;-78
2022/07/12 03:39:31;;;;;;;1.70;1.60;;;16.00;99.90;;;;;;5054890;28;20190;-78
2022/07/12 03:42:19;;;;;;;1.70;1.60;;;16.10;99.90;;;;;;5054540;28;20177;-78
2022/07/12 03:44:44;;;;;;;1.80;1.70;;;16.10;99.90;;;;;;5054704;28;20256;-78
2022/07/12 03:47:10;;;;;;;2.83;1.90;;;16.10;99.90;;;;;;5055006;28;20254;-78
2022/07/12 03:49:35;;;;;;;2.10;1.90;;;16.10;99.90;;;;;;5054780;28;20223;-78
2022/07/12 03:52:02;;;;;;;1.70;1.60;;;16.10;99.90;;;;;;5054665;28;20268;-78
2022/07/12 03:54:28;;;;;;;1.77;1.67;;;16.10;99.90;;;;;;5054862;28;20232;-78
2022/07/12 03:59:38;;;;;;;1.87;1.50;;;16.10;99.90;;;;;;5055009;28;20255;-78
2022/07/12 04:02:03;;;;;;;2.23;1.70;;;16.00;99.90;;;;;;5054294;28;20174;-78
2022/07/12 04:04:29;;;;;;;1.67;1.57;;;15.90;99.90;;;;;;5054219;28;20188;-78
2022/07/12 04:06:55;;;;;;;1.80;1.70;;;16.00;99.90;;;;;;5054242;28;20264;-78
2022/07/12 04:09:20;;;;;;;1.73;1.63;;;15.90;99.90;;;;;;5054397;28;20617;-78
2022/07/12 04:11:46;;;;;;;3.10;2.60;;;15.90;99.90;;;;;;5054214;28;20186;-78
2022/07/12 04:14:12;;;;;;;2.77;2.20;;;15.90;99.90;;;;;;5054463;28;20185;-78
2022/07/12 04:16:37;;;;;;;2.50;2.30;;;15.90;99.90;;;;;;5053590;28;20228;-78
2022/07/12 04:19:04;;;;;;;3.37;2.60;;;15.90;99.90;;;;;;5054115;28;20221;-78
2022/07/12 04:21:33;;;;;;;3.77;2.70;;;16.00;99.90;;;;;;5070711;28;20178;-78
2022/07/12 04:23:59;;;;;;;2.50;2.30;;;16.00;99.90;;;;;;5054114;28;20173;-78
2022/07/12 04:26:24;;;;;;;2.17;2.03;;;16.10;99.90;;;;;;5053800;28;20204;-78
2022/07/12 04:28:50;;;;;;;3.40;2.10;;;16.20;99.90;;;;;;5054099;28;20205;-78
2022/07/12 04:31:15;;;;;;;2.30;2.03;;;16.20;99.90;;;;;;5053819;28;20255;-78
2022/07/12 04:33:41;;;;;;;2.37;1.90;;;16.30;99.90;;;;;;5053262;28;20173;-78
2022/07/12 04:36:07;;;;;;;2.30;2.10;;;16.40;99.90;;;;;;5053398;28;20205;-77
2022/07/12 04:38:32;;;;;;;2.67;2.20;;;16.40;99.90;;;;;;5069600;28;20180;-77
2022/07/12 04:40:58;;;;;;;2.63;2.43;;;16.50;99.90;;;;;;5053146;28;20260;-77
2022/07/12 04:43:31;;;;;;;3.17;2.23;;;16.50;99.90;;;;;;5052682;28;20253;-77
2022/07/12 04:46:08;;;;;;;2.87;2.50;;;16.50;99.90;;;;;;5053124;28;20205;-77
2022/07/12 04:48:34;;;;;;;2.47;2.20;;;16.50;99.90;;;;;;5054092;28;20247;-77
2022/07/12 04:51:00;;;;;;;2.93;2.67;;;16.60;99.90;;;;;;5053208;28;20181;-77
2022/07/12 04:53:26;;;;;;;2.57;2.37;;;16.60;99.90;;;;;;5052702;28;20188;-77
2022/07/12 04:55:54;;;;;;;2.93;2.30;;;16.60;99.90;;;;;;5052768;28;20197;-77
2022/07/12 04:58:19;;;;;;;2.80;2.43;;;16.70;99.90;;;;;;5069355;28;20178;-77
2022/07/12 05:00:45;;;;;;;3.27;2.40;;;16.70;99.90;;;;;;5052831;28;20177;-78
2022/07/12 05:03:10;;;;;;;3.27;2.63;;;16.70;99.90;;;;;;5052578;28;20182;-77
2022/07/12 05:05:36;;;;;;;3.40;3.20;;;16.80;99.90;;;;;;5052583;28;20178;-77
2022/07/12 05:08:02;;;;;;;3.03;2.80;;;16.80;99.90;;;;;;5052404;28;20184;-77
2022/07/12 05:10:27;;;;;;;2.90;2.57;;;16.90;99.90;;;;;;5052620;28;20231;-76
2022/07/12 05:12:53;;;;;;;3.20;2.90;;;16.90;99.90;;;;;;5052213;28;20178;-77
2022/07/12 05:15:18;;;;;;;3.00;2.80;;;16.90;99.90;;;;;;5052268;28;20206;-77
2022/07/12 05:17:44;;;;;;;3.03;2.70;;;16.90;99.90;;;;;;5052132;28;20291;-77
2022/07/12 05:20:10;;;;;;;3.57;3.27;;;16.90;99.90;;;;;;5052391;28;20218;-77
2022/07/12 05:22:35;;;;;;;3.37;2.90;;;16.90;99.90;;;;;;5068620;28;20177;-76
2022/07/12 05:25:01;;;;;;;4.13;3.10;;;17.00;99.90;;;;;;5052516;28;20185;-76
2022/07/12 05:27:27;;;;;;;3.07;2.87;;;17.10;99.90;;;;;;5051388;28;20190;-77
2022/07/12 05:29:52;;;;;;;3.57;3.00;;;17.10;99.90;;;;;;5052239;28;20205;-76
2022/07/12 05:32:18;;;;;;;3.43;3.13;;;17.10;99.90;;;;;;5052294;28;20626;-76
2022/07/12 05:34:43;;;;;;;3.43;3.13;;;17.10;99.90;;;;;;5051785;28;20201;-75
2022/07/12 05:37:09;;;;;;;3.30;3.00;;;17.10;99.90;;;;;;5052228;28;20205;-76
2022/07/12 05:39:35;;;;;;;3.30;3.00;;;17.20;99.90;;;;;;5052113;28;20205;-76
2022/07/12 05:42:01;;;;;;;3.53;2.97;;;17.20;99.90;;;;;;5051852;28;20184;-76
2022/07/12 05:44:26;;;;;;;4.50;3.10;;;17.20;99.90;;;;;;5052955;28;20177;-76
2022/07/12 05:46:52;;;;;;;3.40;3.20;;;17.20;99.90;;;;;;5051821;28;20207;-76
2022/07/12 05:49:17;;;;;;;3.67;3.27;;;17.30;99.90;;;;;;5051811;28;20208;-77
2022/07/12 05:54:27;;;;;;;3.33;3.03;;;17.30;99.90;;;;;;5052217;28;20208;-76
2022/07/12 05:56:53;;;;;;;3.73;3.40;;;17.40;99.90;;;;;;5051570;28;20260;-76
2022/07/12 05:59:18;;;;;;;4.07;3.67;;;17.40;99.90;;;;;;5067628;28;20659;-76
2022/07/12 06:01:44;;;;;;;3.50;3.20;;;17.40;99.90;;;;;;5051027;28;20177;-76
2022/07/12 06:04:10;;;;;;;4.03;3.57;;;17.40;99.90;;;;;;5050707;28;20196;-76
2022/07/12 06:06:35;;;;;;;4.00;3.60;;;17.50;99.90;;;;;;5067865;28;20166;-76
2022/07/12 06:09:01;;;;;;;3.90;3.50;;;17.60;99.90;;;;;;5050785;28;20247;-76
2022/07/12 06:11:27;;;;;;;4.00;3.40;;;17.70;99.90;;;;;;5050900;28;20178;-76
2022/07/12 06:13:53;;;;;;;3.60;3.30;;;17.70;99.90;;;;;;5050783;28;20253;-76
2022/07/12 06:16:18;;;;;;;4.00;3.70;;;17.70;99.90;;;;;;5050820;28;20293;-76
2022/07/12 06:18:44;;;;;;;4.43;4.03;;;17.70;99.90;;;;;;5050724;28;20205;-76
2022/07/12 06:21:09;;;;;;;4.83;3.57;;;17.80;99.90;;;;;;5052419;28;20620;-76
2022/07/12 06:23:35;;;;;;;4.30;3.90;;;17.80;99.90;;;;;;5050646;28;20169;-76
2022/07/12 06:26:01;;;;;;;3.73;3.20;;;17.80;99.90;;;;;;5050769;28;20180;-76
2022/07/12 06:28:27;;;;;;;3.70;3.40;;;17.80;99.90;;;;;;5067383;28;20181;-76
2022/07/12 06:30:53;;;;;;;3.60;3.30;;;17.80;99.90;;;;;;5050644;28;20265;-76
2022/07/12 06:33:18;;;;;;;3.60;3.30;;;17.80;99.90;;;;;;5067158;28;20185;-76
2022/07/12 06:35:44;;;;;;;3.97;3.63;;;17.90;99.90;;;;;;5050773;28;20250;-76
2022/07/12 06:38:09;;;;;;;3.90;3.60;;;17.90;99.90;;;;;;5050698;28;20180;-76
2022/07/12 06:40:35;;;;;;;3.73;3.43;;;17.90;99.90;;;;;;5053929;28;20193;-76
2022/07/12 06:43:01;;;;;;;3.90;3.60;;;17.80;99.90;;;;;;5054476;28;20174;-76
2022/07/12 06:45:26;;;;;;;3.77;3.47;;;17.70;99.90;;;;;;5054654;28;20173;-76
2022/07/12 06:47:52;;;;;;;3.77;3.17;;;17.70;99.90;;;;;;5054621;28;20200;-76
2022/07/12 06:50:18;;;;;;;4.63;3.30;;;17.60;99.90;;;;;;5054701;28;20189;-76
2022/07/12 06:52:44;;;;;;;3.40;3.10;;;17.60;99.90;;;;;;5054243;28;20174;-76
2022/07/12 06:55:09;;;;;;;4.17;3.50;;;17.60;99.90;;;;;;5054457;28;20189;-76
2022/07/12 06:57:36;;;;;;;3.50;3.20;;;17.70;99.90;;;;;;5054331;28;20177;-76
2022/07/12 07:00:06;;;;;;;4.10;3.70;;;17.70;99.90;;;;;;5054428;28;20205;-76
2022/07/12 07:02:32;;;;;;;4.83;3.80;;;17.80;99.90;;;;;;5054593;28;20181;-76
2022/07/12 07:05:23;;;;;;;4.00;3.60;;;17.80;99.90;;;;;;5055045;28;20683;-76
2022/07/12 07:07:49;;;;;;;3.60;2.77;;;17.90;99.90;;;;;;5054352;28;20632;-76
2022/07/12 07:10:14;;;;;;;3.80;3.40;;;17.90;99.90;;;;;;5054207;28;20199;-76
2022/07/12 07:12:41;;;;;;;3.40;3.10;;;18.00;99.90;;;;;;5070634;28;20581;-76
2022/07/12 07:15:07;;;;;;;3.27;3.07;;;18.10;99.90;;;;;;5054040;28;20205;-77
2022/07/12 07:17:33;;;;;;;2.50;2.30;;;18.20;99.90;;;;;;5054481;28;20204;-77
2022/07/12 07:19:59;;;;;;;3.90;3.60;;;18.40;99.90;;;;;;5054037;28;20257;-77
2022/07/12 07:22:24;;;;;;;3.40;3.10;;;18.60;99.90;;;;;;5053609;28;20231;-75
2022/07/12 07:24:50;;;;;;;3.67;3.37;;;18.60;99.90;;;;;;5053952;28;20543;-75
2022/07/12 07:27:15;;;;;;;3.57;3.27;;;18.80;99.90;;;;;;5055110;28;20178;-76
2022/07/12 07:32:25;;;;;;;3.37;3.07;;;19.00;99.90;;;;;;5054172;28;20176;-76
2022/07/12 07:34:50;;;;;;;2.67;2.47;;;19.20;99.90;;;;;;5053791;28;20202;-76
2022/07/12 07:37:16;;;;;;;3.80;2.83;;;19.10;99.90;;;;;;5053470;28;20177;-75
2022/07/12 07:39:42;;;;;;;3.30;3.00;;;19.20;99.90;;;;;;5070203;28;20190;-75
2022/07/12 07:42:08;;;;;;;2.60;2.40;;;19.30;99.90;;;;;;5053424;28;20178;-76
2022/07/12 07:44:34;;;;;;;2.90;2.70;;;19.20;99.90;;;;;;5053659;28;20192;-75
2022/07/12 07:46:59;;;;;;;2.93;2.63;;;19.20;99.90;;;;;;5053354;28;20186;-76
2022/07/12 07:49:25;;;;;;;2.27;2.10;;;19.20;99.90;;;;;;5070097;28;20208;-75
2022/07/12 07:51:50;;;;;;;3.77;2.30;;;19.20;99.90;;;;;;5052156;28;20181;-75
2022/07/12 07:54:16;;;;;;;2.27;2.07;;;19.10;99.90;;;;;;5053563;28;20195;-75
2022/07/12 07:56:42;;;;;;;2.13;2.03;;;19.00;99.90;;;;;;5053432;28;20233;-75
2022/07/12 07:59:07;;;;;;;2.13;1.93;;;18.90;99.90;;;;;;5036766;28;20198;-76
2022/07/12 08:01:42;;;;;;;2.10;1.90;;;18.90;99.90;;;;;;5036619;28;20177;-77
2022/07/12 08:04:12;;;;;;;2.00;1.90;;;19.00;99.90;;;;;;5054291;28;20188;-76
2022/07/12 08:06:38;;;;;;;2.30;2.00;;;19.30;99.90;;;;;;5054440;28;20264;-76
2022/07/12 08:09:05;;;;;;;2.25;2.08;;;19.60;99.90;;;;;;5053142;28;20248;-75
2022/07/12 08:11:31;;;;;;;2.60;2.40;;;19.80;99.90;;;;;;5069910;28;20196;-75
2022/07/12 08:13:57;;;;;;;3.10;2.80;;;20.00;99.90;;;;;;5053064;28;20190;-75
2022/07/12 08:16:22;;;;;;;2.60;2.40;;;20.00;99.90;;;;;;5052942;28;20209;-75
2022/07/12 08:18:48;;;;;;;1.80;1.70;;;20.10;99.90;;;;;;5052740;28;20217;-75
2022/07/12 08:21:13;;;;;;;1.77;1.67;;;20.20;99.90;;;;;;5052971;28;20216;-75
2022/07/12 08:23:39;;;;;;;1.98;1.88;;;20.40;99.90;;;;;;5036131;28;20178;-75
2022/07/12 08:26:05;;;;;;;1.80;1.70;;;20.50;99.90;;;;;;5053100;28;20251;-76
2022/07/12 08:28:30;;;;;;;1.58;1.48;;;20.50;99.90;;;;;;5052805;28;20189;-75
2022/07/12 08:30:56;;;;;;;1.50;1.40;;;20.70;99.90;;;;;;5052824;28;20169;-75
2022/07/12 08:33:22;;;;;;;2.60;1.33;;;20.70;99.90;;;;;;5052521;28;20197;-75
2022/07/12 08:35:47;;;;;;;1.80;1.52;;;20.90;99.90;;;;;;5052376;28;20672;-75
2022/07/12 08:38:15;;;;;;;1.60;1.50;;;20.90;99.90;;;;;;5052738;28;20170;-74
2022/07/12 08:40:41;;;;;;;1.50;1.40;;;21.10;99.90;;;;;;5052518;28;20701;-74
2022/07/12 08:43:07;;;;;;;1.52;1.10;;;21.20;99.90;;;;;;5052237;28;20177;-74
2022/07/12 08:45:32;;;;;;;1.27;1.17;;;21.50;99.90;;;;;;5053716;28;20165;-74
2022/07/12 08:47:58;;;;;;;1.27;1.17;;;21.60;99.90;;;;;;5053627;28;20186;-77
2022/07/12 08:50:24;;;;;;;1.30;1.20;;;21.80;99.90;;;;;;5052380;28;20304;-75
2022/07/12 08:52:55;;;;;;;1.23;1.13;;;21.90;99.90;;;;;;5052232;28;20213;-76
2022/07/12 08:55:29;;;;;;;1.58;1.48;;;21.90;99.90;;;;;;5052169;28;20211;-75
2022/07/12 08:57:56;;;;;;;1.35;1.25;;;21.70;99.90;;;;;;5053368;28;20216;-74
2022/07/12 09:00:23;;;;;;;1.20;1.10;;;21.70;99.90;;;;;;5052139;28;20186;-74
2022/07/12 09:02:54;;;;;;;1.40;1.30;;;21.70;99.90;;;;;;5068293;28;20201;-74
2022/07/12 09:05:24;;;;;;;1.25;1.15;;;21.50;99.90;;;;;;5052409;28;20185;-75
2022/07/12 09:07:51;;;;;;;1.20;1.10;;;21.30;99.90;;;;;;5068541;28;20193;-74
2022/07/12 09:10:18;;;;;;;1.80;1.30;;;21.20;99.90;;;;;;5052000;28;20308;-74
2022/07/12 09:12:44;;;;;;;1.35;1.25;;;21.00;99.90;;;;;;5051799;28;20178;-74
2022/07/12 09:15:30;;;;;;;1.30;1.20;;;20.90;99.90;;;;;;5051791;28;20202;-74
2022/07/12 09:18:04;;;;;;;1.10;1.10;;;21.00;99.90;;;;;;5035229;28;20247;-74
2022/07/12 09:20:34;;;;;;;2.25;1.27;;;20.90;99.90;;;;;;5109807;22;20307;-77
2022/07/12 09:23:03;;;;;;;1.30;1.20;;;20.90;99.90;;;;;;5071527;28;20178;-76
2022/07/12 09:25:31;;;;;;;1.50;1.20;;;21.20;99.90;;;;;;5055390;28;20202;-76
2022/07/12 09:27:59;;;;;;;1.33;1.23;;;21.60;99.90;;;;;;5071538;28;20183;-76
2022/07/12 09:30:27;;;;;;;1.13;1.13;;;22.00;99.90;;;;;;5071682;28;20208;-76
2022/07/12 09:36:06;;;;;;;1.20;1.10;;;22.10;99.90;;;;;;5072763;28;20752;-76
2022/07/12 09:38:36;;;;;;;1.55;1.05;;;22.20;99.90;;;;;;5071504;28;20643;-76
2022/07/12 09:41:03;;;;;;;1.25;1.15;;;22.50;99.90;;;;;;5071470;28;20255;-77
2022/07/12 09:43:30;;;;;;;1.20;1.10;;;22.90;99.90;;;;;;5071320;28;20169;-76
2022/07/12 09:45:55;;;;;;;1.00;1.00;;;23.00;99.90;;;;;;5054955;28;20176;-76
2022/07/12 09:48:22;;;;;;;1.15;1.08;;;23.10;99.90;;;;;;5055187;28;20586;-76
2022/07/12 09:50:49;;;;;;;1.10;1.00;;;23.30;99.90;;;;;;5055173;28;20658;-77
2022/07/12 09:53:41;;;;;;;1.40;1.10;;;23.60;99.90;;;;;;5055113;28;20188;-77
2022/07/12 09:56:11;;;;;;;1.10;1.10;;;23.80;99.90;;;;;;5068302;28;20208;-77
2022/07/12 09:58:45;;;;;;;1.20;1.10;;;23.70;99.90;;;;;;5054898;28;20201;-77
2022/07/12 10:01:11;;;;;;;1.05;0.95;;;23.30;99.90;;;;;;5055928;28;20218;-77
2022/07/12 10:03:40;;;;;;;1.40;1.30;;;23.20;99.90;;;;;;5072611;28;20219;-77
2022/07/12 10:06:07;;;;;;;1.10;1.00;;;23.10;99.90;;;;;;5071434;28;20176;-77
2022/07/12 10:08:34;;;;;;;2.00;1.10;;;23.00;99.90;;;;;;5054653;28;20212;-77
2022/07/12 10:10:59;;;;;;;1.27;1.17;;;23.00;99.90;;;;;;5071731;28;20193;-77
2022/07/12 10:13:26;;;;;;;0.98;0.98;;;23.30;99.90;;;;;;5070807;28;20211;-77
2022/07/12 10:15:58;;;;;;;1.33;1.20;;;23.70;99.90;;;;;;5071378;28;20211;-77
2022/07/12 10:18:23;;;;;;;1.42;1.08;;;23.90;99.90;;;;;;5072695;28;20194;-77
2022/07/12 10:20:50;;;;;;;1.13;0.95;;;24.10;99.90;;;;;;5054630;28;20217;-77
2022/07/12 10:23:34;;;;;;;1.10;1.00;;;24.10;99.90;;;;;;5072484;28;20195;-77
2022/07/12 10:26:23;;;;;;;1.08;0.98;;;24.20;99.90;;;;;;5071553;28;20208;-77
2022/07/12 10:29:05;;;;;;;1.20;1.10;;;24.20;99.90;;;;;;5068383;28;20192;-77
2022/07/12 10:31:37;;;;;;;1.02;1.02;;;24.30;99.90;;;;;;5071325;28;20176;-77
2022/07/12 10:34:11;;;;;;;1.10;1.00;;;24.50;99.90;;;;;;5055053;28;20183;-78
2022/07/12 10:37:07;;;;;;;1.30;1.20;;;24.60;99.90;;;;;;5072276;28;20200;-77
2022/07/12 10:39:32;;;;;;;1.20;1.10;;;24.50;99.90;;;;;;5069200;28;20697;-77
2022/07/12 10:42:05;;;;;;;1.05;1.05;;;24.80;99.90;;;;;;5054156;28;20181;-77
2022/07/12 10:44:38;;;;;;;0.95;0.95;;;24.90;99.90;;;;;;5070825;28;20627;-77
2022/07/12 10:47:05;;;;;;;1.08;1.00;;;24.80;99.90;;;;;;5072099;28;20169;-77
2022/07/12 10:49:32;;;;;;;1.08;1.00;;;24.80;99.90;;;;;;5070795;28;20185;-77
2022/07/12 10:52:10;;;;;;;0.90;0.90;;;25.20;99.90;;;;;;5054119;28;20212;-77
2022/07/12 10:54:54;;;;;;;1.10;1.10;;;25.50;99.90;;;;;;5070866;28;20740;-78
2022/07/12 10:57:42;;;;;;;1.50;1.30;;;25.40;99.90;;;;;;5070487;28;20169;-77
2022/07/12 11:00:09;;;;;;;1.10;1.00;;;25.50;99.90;;;;;;5070985;28;20195;-77
2022/07/12 11:02:35;;;;;;;1.08;0.95;;;25.40;99.90;;;;;;5054281;28;20177;-78
2022/07/12 11:05:01;;;;;;;0.93;0.93;;;25.50;99.90;;;;;;5054006;28;20177;-77
2022/07/12 11:07:27;;;;;;;1.00;1.00;;;25.50;99.90;;;;;;5071702;28;20173;-77
2022/07/12 11:09:54;;;;;;;1.15;1.05;;;25.40;99.90;;;;;;5071680;28;20205;-77
2022/07/12 11:12:20;;;;;;;1.20;1.10;;;25.60;99.90;;;;;;5071021;28;20216;-78
2022/07/12 11:14:46;;;;;;;1.08;1.08;;;25.80;99.90;;;;;;5071231;28;20254;-76
2022/07/12 11:17:12;;;;;;;1.10;1.00;;;26.10;99.90;;;;;;5070969;28;20180;-77
2022/07/12 11:19:38;;;;;;;1.05;0.98;;;26.40;99.80;;;;;;5054285;28;20216;-78
2022/07/12 11:22:04;;;;;;;1.10;1.10;;;26.60;98.40;;;;;;5053415;28;20180;-76
2022/07/12 11:24:37;;;;;;;0.90;0.90;;;26.60;98.60;;;;;;5053691;28;20548;-75
2022/07/12 11:27:04;;;;;;;0.85;0.85;;;26.90;98.50;;;;;;5074169;28;20607;-77
2022/07/12 11:29:30;;;;;;;1.10;1.00;;;26.60;93.10;;;;;;5074188;28;20200;-76
2022/07/12 11:32:05;;;;;;;1.33;1.23;;;26.80;94.70;;;;;;5057091;28;20226;-76
2022/07/12 11:34:31;;;;;;;1.13;1.00;;;26.90;99.50;;;;;;5073624;28;20176;-76
2022/07/12 11:37:00;;;;;;;0.90;0.90;;;27.10;94.30;;;;;;5056978;28;20185;-76
2022/07/12 11:39:36;;;;;;;1.63;1.30;;;26.80;92.80;;;;;;5073756;28;20181;-76
2022/07/12 11:42:02;;;;;;;1.45;0.90;;;27.00;95.40;;;;;;5073630;28;20160;-76
2022/07/12 11:44:48;;;;;;;0.90;0.90;;;27.30;95.50;;;;;;5073863;28;20177;-76
2022/07/12 11:47:15;;;;;;;1.20;1.00;;;27.40;91.20;;;;;;5073582;28;20205;-76
2022/07/12 11:49:45;;;;;;;1.95;0.80;;;27.30;88.90;;;;;;5056663;28;20192;-76
2022/07/12 11:52:17;;;;;;;1.63;1.08;;;27.50;88.80;;;;;;5073467;28;20173;-76
2022/07/12 11:54:43;;;;;;;0.90;0.90;;;27.50;88.60;;;;;;5073091;28;20223;-75
2022/07/12 11:57:09;;;;;;;1.00;1.00;;;27.60;81.80;;;;;;5057028;28;20647;-76
2022/07/12 11:59:35;;;;;;;0.80;0.80;;;27.30;83.70;;;;;;5056734;28;20197;-76
2022/07/12 12:02:07;;;;;;;0.80;0.80;;;27.50;78.10;;;;;;5056446;28;20196;-76
2022/07/12 12:04:45;;;;;;;1.00;0.90;;;27.50;84.90;;;;;;5074381;28;20212;-76
2022/07/12 12:07:44;;;;;;;0.82;0.80;;;27.90;83.70;;;;;;5073384;28;20183;-76
2022/07/12 12:10:13;;;;;;;0.70;0.70;;;28.40;83.70;;;;;;5073807;28;20200;-76
2022/07/12 12:12:48;;;;;;;1.08;0.90;;;28.40;79.80;;;;;;5073322;28;20223;-76
2022/07/12 12:15:26;;;;;;;0.90;0.90;;;28.60;73.70;;;;;;5074579;28;20279;-76
2022/07/12 12:21:13;;;;;;;0.90;0.90;;;28.60;72.60;;;;;;5074653;28;20557;-76
2022/07/12 12:23:41;;;;;;;0.70;0.70;;;28.70;76.80;;;;;;5073164;28;20177;-76
2022/07/12 12:26:14;;;;;;;0.70;0.70;;;29.00;71.50;;;;;;5073325;28;20172;-76
2022/07/12 12:28:45;;;;;;;1.40;0.80;;;28.90;72.20;;;;;;5073243;28;20263;-75
2022/07/12 12:31:13;;;;;;;1.15;0.82;;;29.00;67.40;;;;;;5073122;28;20177;-75
2022/07/12 12:33:56;;;;;;;0.85;0.85;;;28.70;68.40;;;;;;5056621;28;20288;-76
2022/07/12 12:36:24;;;;;;;0.85;0.85;;;28.80;68.30;;;;;;5072973;28;20254;-76
2022/07/12 12:38:56;;;;;;;0.90;0.90;;;28.60;66.40;;;;;;5072937;28;20682;-76
2022/07/12 12:41:22;;;;;;;0.82;0.82;;;28.50;69.30;;;;;;5072934;28;20200;-76
2022/07/12 12:43:57;;;;;;;0.90;0.90;;;28.60;66.50;;;;;;5056087;28;20181;-75
2022/07/12 12:46:22;;;;;;;0.90;0.90;;;28.60;65.60;;;;;;5073072;28;20168;-76
2022/07/12 12:48:48;;;;;;;0.80;0.80;;;28.60;65.10;;;;;;5072840;28;20177;-76
2022/07/12 12:51:14;;;;;;;1.20;0.80;;;28.70;69.90;;;;;;5072776;28;20180;-76
2022/07/12 12:53:41;;;;;;;0.82;0.82;;;28.90;64.70;;;;;;5072557;28;20203;-76
2022/07/12 12:56:10;;;;;;;0.90;0.90;;;29.00;64.50;;;;;;5073826;28;20192;-76
2022/07/12 12:58:36;;;;;;;0.70;0.70;;;29.40;63.00;;;;;;5073820;28;20176;-76
2022/07/12 13:01:03;;;;;;;0.80;0.80;;;29.50;63.20;;;;;;5072543;28;20177;-76
2022/07/12 13:03:29;;;;;;;1.40;0.82;;;29.60;58.80;;;;;;5072556;28;20242;-76
2022/07/12 13:05:54;;;;;;;0.88;0.88;;;29.50;58.80;;;;;;5072468;28;20647;-76